createdAt,value
2023-04-02T00:01:38.728Z,0.50
2023-04-02T00:04:09.068Z,0.40
2023-04-02T00:06:40.250Z,0.60
2023-04-02T00:09:13.029Z,0.60
2023-04-02T00:11:44.216Z,0.43
2023-04-02T00:14:16.488Z,0.47
2023-04-02T00:16:43.598Z,0.50
2023-04-02T00:19:16.833Z,0.50
2023-04-02T00:21:44.715Z,0.50
2023-04-02T00:24:16.043Z,0.60
2023-04-02T00:26:46.889Z,0.50
2023-04-02T00:29:14.997Z,0.50
2023-04-02T00:31:43.091Z,0.40
2023-04-02T00:34:14.874Z,0.45
2023-04-02T00:36:44.087Z,0.40
2023-04-02T00:39:15.064Z,0.40
2023-04-02T00:41:46.737Z,0.50
2023-04-02T00:44:22.048Z,0.40
2023-04-02T00:46:50.035Z,0.45
2023-04-02T00:49:16.665Z,0.47
2023-04-02T00:51:46.524Z,0.50
2023-04-02T00:54:15.871Z,0.50
2023-04-02T00:56:44.138Z,0.50
2023-04-02T00:59:40.278Z,0.57
2023-04-02T01:02:17.608Z,0.80
2023-04-02T01:04:58.188Z,0.60
2023-04-02T01:07:44.999Z,0.75
2023-04-02T01:10:29.542Z,0.50
2023-04-02T01:12:59.037Z,0.50
2023-04-02T01:15:27.511Z,0.60
2023-04-02T01:17:54.728Z,0.45
2023-04-02T01:20:27.428Z,0.47
2023-04-02T01:22:55.035Z,0.50
2023-04-02T01:25:31.596Z,0.50
2023-04-02T01:28:05.120Z,0.73
2023-04-02T01:30:34.154Z,0.40
2023-04-02T01:33:00.916Z,0.70
2023-04-02T01:35:30.814Z,0.50
2023-04-02T01:38:02.393Z,0.47
2023-04-02T01:40:33.956Z,0.70
2023-04-02T01:43:00.898Z,0.63
2023-04-02T01:45:28.858Z,0.47
2023-04-02T01:47:55.508Z,0.73
2023-04-02T01:50:31.617Z,0.50
2023-04-02T01:53:02.587Z,0.70
2023-04-02T01:55:32.428Z,0.57
2023-04-02T01:58:00.206Z,0.50
2023-04-02T02:00:28.391Z,0.50
2023-04-02T02:02:55.105Z,0.50
2023-04-02T02:05:23.151Z,0.60
2023-04-02T02:07:50.686Z,0.43
2023-04-02T02:10:18.936Z,0.50
2023-04-02T02:12:45.972Z,0.52
2023-04-02T02:15:17.087Z,0.40
2023-04-02T02:17:44.839Z,0.50
2023-04-02T02:20:13.083Z,0.70
2023-04-02T02:22:46.869Z,0.40
2023-04-02T02:27:55.531Z,0.50
2023-04-02T02:30:24.600Z,0.50
2023-04-02T02:33:10.112Z,0.63
2023-04-02T02:35:42.843Z,0.60
2023-04-02T02:38:25.736Z,0.55
2023-04-02T02:40:54.390Z,0.70
2023-04-02T02:43:21.057Z,0.40
2023-04-02T02:45:48.849Z,0.60
2023-04-02T02:48:17.369Z,0.50
2023-04-02T02:50:44.048Z,0.50
2023-04-02T02:53:36.797Z,0.50
2023-04-02T02:56:03.313Z,0.50
2023-04-02T02:58:32.437Z,0.52
2023-04-02T03:00:59.131Z,0.65
2023-04-02T03:03:29.834Z,0.70
2023-04-02T03:05:57.943Z,0.60
2023-04-02T03:08:28.447Z,0.60
2023-04-02T03:11:04.563Z,0.60
2023-04-02T03:13:35.631Z,0.50
2023-04-02T03:16:21.085Z,0.50
2023-04-02T03:19:05.919Z,0.50
2023-04-02T03:21:48.577Z,0.50
2023-04-02T03:24:29.799Z,0.50
2023-04-02T03:27:02.047Z,0.50
2023-04-02T03:29:33.184Z,1.23
2023-04-02T03:32:11.830Z,0.50
2023-04-02T03:34:41.446Z,0.52
2023-04-02T03:37:11.026Z,0.40
2023-04-02T03:39:40.878Z,0.60
2023-04-02T03:42:14.395Z,0.40
2023-04-02T03:44:46.670Z,0.60
2023-04-02T03:47:16.579Z,0.50
2023-04-02T03:49:46.578Z,0.45
2023-04-02T03:52:29.043Z,0.60
2023-04-02T03:54:57.041Z,0.40
2023-04-02T03:57:29.721Z,0.57
2023-04-02T04:00:00.621Z,0.50
2023-04-02T04:02:47.667Z,0.50
2023-04-02T04:05:30.692Z,0.50
2023-04-02T04:08:00.956Z,0.52
2023-04-02T04:10:28.455Z,0.70
2023-04-02T04:12:56.563Z,0.50
2023-04-02T04:15:33.240Z,0.55
2023-04-02T04:18:10.498Z,0.63
2023-04-02T04:20:45.967Z,0.55
2023-04-02T04:23:33.789Z,0.75
2023-04-02T04:26:09.683Z,0.60
2023-04-02T04:28:59.870Z,0.50
2023-04-02T04:31:38.922Z,0.60
2023-04-02T04:34:12.866Z,0.40
2023-04-02T04:39:14.601Z,0.65
2023-04-02T04:41:41.625Z,0.63
2023-04-02T04:44:17.616Z,0.70
2023-04-02T04:46:59.568Z,0.60
2023-04-02T04:49:30.984Z,0.43
2023-04-02T04:51:59.836Z,0.50
2023-04-02T04:54:27.454Z,0.60
2023-04-02T04:57:01.900Z,0.50
2023-04-02T04:59:31.453Z,0.63
2023-04-02T05:02:10.620Z,0.70
2023-04-02T05:04:37.085Z,0.70
2023-04-02T05:07:12.918Z,0.63
2023-04-02T05:09:44.030Z,0.60
2023-04-02T05:12:10.792Z,0.60
2023-04-02T05:14:43.432Z,0.60
2023-04-02T05:17:36.294Z,0.60
2023-04-02T05:20:02.905Z,0.52
2023-04-02T05:22:29.318Z,0.80
2023-04-02T05:25:13.787Z,0.55
2023-04-02T05:27:44.019Z,0.70
2023-04-02T05:30:15.885Z,0.50
2023-04-02T05:32:47.563Z,0.50
2023-04-02T05:35:16.186Z,0.50
2023-04-02T05:37:42.893Z,0.52
2023-04-02T05:40:14.680Z,0.68
2023-04-02T05:42:45.586Z,0.93
2023-04-02T05:45:18.189Z,0.52
2023-04-02T05:47:46.947Z,0.60
2023-04-02T05:50:17.567Z,0.82
2023-04-02T05:52:48.769Z,1.05
2023-04-02T05:55:29.378Z,0.77
2023-04-02T05:58:29.448Z,0.70
2023-04-02T06:01:07.783Z,0.60
2023-04-02T06:03:46.059Z,0.63
2023-04-02T06:06:19.408Z,0.73
2023-04-02T06:08:52.072Z,0.68
2023-04-02T06:11:21.946Z,0.85
2023-04-02T06:13:48.440Z,0.73
2023-04-02T06:16:16.343Z,0.80
2023-04-02T06:18:43.672Z,0.63
2023-04-02T06:21:11.783Z,0.60
2023-04-02T06:23:41.031Z,0.60
2023-04-02T06:26:26.405Z,0.70
2023-04-02T06:28:58.857Z,0.68
2023-04-02T06:31:25.597Z,0.60
2023-04-02T06:33:54.970Z,0.63
2023-04-02T06:36:21.784Z,0.70
2023-04-02T06:38:49.169Z,0.70
2023-04-02T06:41:19.611Z,0.60
2023-04-02T06:43:48.764Z,0.90
2023-04-02T06:46:18.349Z,0.68
2023-04-02T06:48:45.733Z,0.60
2023-04-02T06:51:14.032Z,0.73
2023-04-02T06:53:42.815Z,0.70
2023-04-02T06:56:12.235Z,0.80
2023-04-02T06:58:38.712Z,0.73
2023-04-02T07:01:05.561Z,0.75
2023-04-02T07:03:32.637Z,0.55
2023-04-02T07:06:00.076Z,0.80
2023-04-02T07:08:26.526Z,0.65
2023-04-02T07:10:53.046Z,0.85
2023-04-02T07:13:20.777Z,0.80
2023-04-02T07:15:48.920Z,0.80
2023-04-02T07:18:41.882Z,0.80
2023-04-02T07:21:08.364Z,0.80
2023-04-02T07:23:34.859Z,1.00
2023-04-02T07:26:02.396Z,0.95
2023-04-02T07:28:29.469Z,1.20
2023-04-02T07:30:56.495Z,1.10
2023-04-02T07:33:27.732Z,1.00
2023-04-02T07:35:55.131Z,0.95
2023-04-02T07:38:24.232Z,1.23
2023-04-02T07:40:53.191Z,0.90
2023-04-02T07:43:20.442Z,0.93
2023-04-02T07:45:47.124Z,0.88
2023-04-02T07:48:14.240Z,0.70
2023-04-02T07:50:41.074Z,0.70
2023-04-02T07:53:08.824Z,1.35
2023-04-02T07:55:35.724Z,1.05
2023-04-02T07:58:03.101Z,0.98
2023-04-02T08:00:29.645Z,1.13
2023-04-02T08:02:56.457Z,1.20
2023-04-02T08:05:23.104Z,0.95
2023-04-02T08:07:56.782Z,0.77
2023-04-02T08:10:23.938Z,1.30
2023-04-02T08:12:52.890Z,1.35
2023-04-02T08:15:19.331Z,1.48
2023-04-02T08:17:46.535Z,1.00
2023-04-02T08:20:18.155Z,0.88
2023-04-02T08:22:48.254Z,1.00
2023-04-02T08:25:17.189Z,0.90
2023-04-02T08:27:46.453Z,0.90
2023-04-02T08:30:16.013Z,1.00
2023-04-02T08:32:42.797Z,0.95
2023-04-02T08:35:13.117Z,1.00
2023-04-02T08:37:39.648Z,0.98
2023-04-02T08:40:10.136Z,1.08
2023-04-02T08:42:49.337Z,0.98
2023-04-02T08:45:25.418Z,0.70
2023-04-02T08:47:53.521Z,0.98
2023-04-02T08:50:32.847Z,1.30
2023-04-02T08:52:59.661Z,1.05
2023-04-02T08:55:47.801Z,1.45
2023-04-02T08:58:14.341Z,1.15
2023-04-02T09:00:42.757Z,1.42
2023-04-02T09:03:17.754Z,1.38
2023-04-02T09:05:45.340Z,1.30
2023-04-02T09:08:27.137Z,1.30
2023-04-02T09:11:13.968Z,1.38
2023-04-02T09:13:42.645Z,1.50
2023-04-02T09:16:09.123Z,1.08
2023-04-02T09:18:38.780Z,0.90
2023-04-02T09:21:20.880Z,0.90
2023-04-02T09:23:47.915Z,1.20
2023-04-02T09:26:22.887Z,1.30
2023-04-02T09:28:51.828Z,1.38
2023-04-02T09:31:47.339Z,1.20
2023-04-02T09:34:30.764Z,1.25
2023-04-02T09:37:07.438Z,1.10
2023-04-02T09:39:35.574Z,1.27
2023-04-02T09:42:06.336Z,1.40
2023-04-02T09:44:33.010Z,1.20
2023-04-02T09:47:03.704Z,1.17
2023-04-02T09:49:32.103Z,1.20
2023-04-02T09:52:16.935Z,1.35
2023-04-02T09:54:43.570Z,1.30
2023-04-02T09:57:25.082Z,1.55
2023-04-02T10:00:26.025Z,1.58
2023-04-02T10:03:05.328Z,1.38
2023-04-02T10:08:21.245Z,1.42
2023-04-02T10:10:49.927Z,1.58
2023-04-02T10:13:35.599Z,1.92
2023-04-02T10:16:13.317Z,1.70
2023-04-02T10:19:13.400Z,1.52
2023-04-02T10:21:41.587Z,1.15
2023-04-02T10:24:12.930Z,1.10
2023-04-02T10:26:57.879Z,2.13
2023-04-02T10:29:45.637Z,1.23
2023-04-02T10:32:16.519Z,1.10
2023-04-02T10:34:46.556Z,1.35
2023-04-02T10:37:22.512Z,1.67
2023-04-02T10:39:53.898Z,1.38
2023-04-02T10:42:31.100Z,1.60
2023-04-02T10:45:00.769Z,1.88
2023-04-02T10:47:37.756Z,1.35
2023-04-02T10:50:11.548Z,1.20
2023-04-02T10:55:27.127Z,1.00
2023-04-02T10:57:54.194Z,1.25
2023-04-02T11:00:32.885Z,1.15
2023-04-02T11:03:06.085Z,1.10
2023-04-02T11:05:44.223Z,1.00
2023-04-02T11:08:25.956Z,1.35
2023-04-02T11:10:58.681Z,1.88
2023-04-02T11:13:44.725Z,4.20
2023-04-02T11:16:17.276Z,2.20
2023-04-02T11:19:03.679Z,1.27
2023-04-02T11:21:30.017Z,1.17
2023-04-02T11:23:58.823Z,1.00
2023-04-02T11:26:31.850Z,1.10
2023-04-02T11:29:04.939Z,1.67
2023-04-02T11:31:31.519Z,2.80
2023-04-02T11:33:58.718Z,3.17
2023-04-02T11:36:44.136Z,4.40
2023-04-02T11:39:16.962Z,3.53
2023-04-02T11:44:22.292Z,1.70
2023-04-02T11:46:52.171Z,1.08
2023-04-02T11:49:36.051Z,1.63
2023-04-02T11:52:11.415Z,1.85
2023-04-02T11:54:38.947Z,1.95
2023-04-02T11:57:10.784Z,5.47
2023-04-02T11:59:43.514Z,2.75
2023-04-02T12:02:24.067Z,3.70
2023-04-02T12:04:56.845Z,3.17
2023-04-02T12:07:26.602Z,4.28
2023-04-02T12:09:55.150Z,1.17
2023-04-02T12:12:24.707Z,1.00
2023-04-02T12:14:51.939Z,0.90
2023-04-02T12:17:36.682Z,1.08
2023-04-02T12:20:05.748Z,1.48
2023-04-02T12:22:33.224Z,1.50
2023-04-02T12:25:04.020Z,1.50
2023-04-02T12:27:30.890Z,1.70
2023-04-02T12:30:11.485Z,4.25
2023-04-02T12:32:40.453Z,2.53
2023-04-02T12:35:21.724Z,1.20
2023-04-02T12:37:52.472Z,1.33
2023-04-02T12:40:18.991Z,1.77
2023-04-02T12:42:45.646Z,11.48
2023-04-02T12:45:23.017Z,1.58
2023-04-02T12:47:49.515Z,5.88
2023-04-02T12:50:17.126Z,5.40
2023-04-02T12:52:47.716Z,10.77
2023-04-02T12:55:19.520Z,8.20
2023-04-02T12:57:49.822Z,4.22
2023-04-02T13:00:22.409Z,1.90
2023-04-02T13:02:49.724Z,3.05
2023-04-02T13:05:34.012Z,2.97
2023-04-02T13:08:00.565Z,4.00
2023-04-02T13:10:27.660Z,5.07
2023-04-02T13:13:01.648Z,1.02
2023-04-02T13:15:32.353Z,1.58
2023-04-02T13:18:14.371Z,3.40
2023-04-02T13:20:41.467Z,2.00
2023-04-02T13:23:23.760Z,1.70
2023-04-02T13:25:50.558Z,1.90
2023-04-02T13:28:16.948Z,1.00
2023-04-02T13:30:45.930Z,3.33
2023-04-02T13:33:13.056Z,1.55
2023-04-02T13:35:39.628Z,2.22
2023-04-02T13:38:06.171Z,6.72
2023-04-02T13:40:33.546Z,3.70
2023-04-02T13:43:03.670Z,2.95
2023-04-02T13:45:34.877Z,3.58
2023-04-02T13:48:01.978Z,2.92
2023-04-02T13:50:29.498Z,2.50
2023-04-02T13:52:57.835Z,1.92
2023-04-02T13:55:26.469Z,1.75
2023-04-02T13:57:52.837Z,1.65
2023-04-02T14:00:19.855Z,1.63
2023-04-02T14:02:50.912Z,3.67
2023-04-02T14:05:23.383Z,1.88
2023-04-02T14:08:09.057Z,1.90
2023-04-02T14:10:47.838Z,1.98
2023-04-02T14:13:34.514Z,9.38
2023-04-02T14:16:01.725Z,5.03
2023-04-02T14:18:31.882Z,11.15
2023-04-02T14:20:58.337Z,8.00
2023-04-02T14:23:35.842Z,4.20
2023-04-02T14:26:31.677Z,9.20
2023-04-02T14:28:58.954Z,9.27
2023-04-02T14:31:38.636Z,7.03
2023-04-02T14:34:24.243Z,6.72
2023-04-02T14:37:03.167Z,4.13
2023-04-02T14:39:48.784Z,9.40
2023-04-02T14:42:22.071Z,1.27
2023-04-02T14:44:56.010Z,1.50
2023-04-02T14:47:25.865Z,1.25
2023-04-02T14:49:54.900Z,1.10
2023-04-02T14:52:22.792Z,1.67
2023-04-02T14:54:52.197Z,1.10
2023-04-02T14:57:23.085Z,1.00
2023-04-02T14:59:58.820Z,1.00
2023-04-02T15:02:25.268Z,1.65
2023-04-02T15:05:03.585Z,1.20
2023-04-02T15:07:36.255Z,0.98
2023-04-02T15:10:05.982Z,1.15
2023-04-02T15:12:37.580Z,1.23
2023-04-02T15:15:37.043Z,1.30
2023-04-02T15:18:09.477Z,1.30
2023-04-02T15:20:46.261Z,1.00
2023-04-02T15:23:17.779Z,1.30
2023-04-02T15:25:48.554Z,1.55
2023-04-02T15:28:17.818Z,2.40
2023-04-02T15:30:44.953Z,3.67
2023-04-02T15:33:30.234Z,2.65
2023-04-02T15:35:56.644Z,1.70
2023-04-02T15:38:26.427Z,1.65
2023-04-02T15:41:10.018Z,2.50
2023-04-02T15:43:56.653Z,2.00
2023-04-02T15:46:26.206Z,1.55
2023-04-02T15:49:12.950Z,3.30
2023-04-02T15:51:58.881Z,5.63
2023-04-02T15:54:45.997Z,7.60
2023-04-02T15:57:32.386Z,3.00
2023-04-02T16:00:17.091Z,1.50
2023-04-02T16:02:46.820Z,1.10
2023-04-02T16:05:13.245Z,1.15
2023-04-02T16:07:58.484Z,1.00
2023-04-02T16:10:37.841Z,1.00
2023-04-02T16:13:19.175Z,1.30
2023-04-02T16:15:49.198Z,3.10
2023-04-02T16:18:30.432Z,1.45
2023-04-02T16:20:59.861Z,1.30
2023-04-02T16:23:31.410Z,1.73
2023-04-02T16:26:30.330Z,1.13
2023-04-02T16:29:15.646Z,1.63
2023-04-02T16:31:42.011Z,1.70
2023-04-02T16:34:17.580Z,1.80
2023-04-02T16:36:46.979Z,2.00
2023-04-02T16:39:29.200Z,2.30
2023-04-02T16:41:55.633Z,1.90
2023-04-02T16:44:54.484Z,2.17
2023-04-02T16:47:24.122Z,1.80
2023-04-02T16:50:15.521Z,1.95
2023-04-02T16:52:51.144Z,2.00
2023-04-02T16:55:23.458Z,2.00
2023-04-02T16:58:08.660Z,1.60
2023-04-02T17:00:35.319Z,2.10
2023-04-02T17:03:05.026Z,3.00
2023-04-02T17:05:36.089Z,2.20
2023-04-02T17:08:34.970Z,2.00
2023-04-02T17:11:01.566Z,2.33
2023-04-02T17:13:28.063Z,1.95
2023-04-02T17:16:03.788Z,3.15
2023-04-02T17:18:30.976Z,1.80
2023-04-02T17:21:00.580Z,13.25
2023-04-02T17:23:27.661Z,4.45
2023-04-02T17:25:57.153Z,4.38
2023-04-02T17:28:26.294Z,9.05
2023-04-02T17:30:55.604Z,11.82
2023-04-02T17:33:25.050Z,18.02
2023-04-02T17:35:57.530Z,9.50
2023-04-02T17:38:33.599Z,5.15
2023-04-02T17:41:00.051Z,11.93
2023-04-02T17:43:29.518Z,5.72
2023-04-02T17:45:56.743Z,32.75
2023-04-02T17:48:37.257Z,14.88
2023-04-02T17:51:09.786Z,7.72
2023-04-02T17:53:36.820Z,6.85
2023-04-02T17:56:16.931Z,22.35
2023-04-02T17:59:01.137Z,8.35
2023-04-02T18:01:33.618Z,10.20
2023-04-02T18:04:06.378Z,9.48
2023-04-02T18:06:32.780Z,5.32
2023-04-02T18:09:18.072Z,8.68
2023-04-02T18:11:47.245Z,7.30
2023-04-02T18:14:32.779Z,3.72
2023-04-02T18:17:06.804Z,3.75
2023-04-02T18:19:40.978Z,3.90
2023-04-02T18:22:13.461Z,6.75
2023-04-02T18:24:39.927Z,6.22
2023-04-02T18:27:13.893Z,5.85
2023-04-02T18:29:58.572Z,3.97
2023-04-02T18:32:25.082Z,3.10
2023-04-02T18:35:10.503Z,2.90
2023-04-02T18:37:55.812Z,3.85
2023-04-02T18:40:38.934Z,3.72
2023-04-02T18:43:05.538Z,3.40
2023-04-02T18:45:54.991Z,3.38
2023-04-02T18:48:41.096Z,3.40
2023-04-02T18:51:13.742Z,3.80
2023-04-02T18:53:41.272Z,3.78
2023-04-02T18:56:11.974Z,3.20
2023-04-02T18:58:42.345Z,4.25
2023-04-02T19:01:09.908Z,3.75
2023-04-02T19:03:39.825Z,4.80
2023-04-02T19:06:09.084Z,4.70
2023-04-02T19:08:41.954Z,3.80
2023-04-02T19:11:13.995Z,4.00
2023-04-02T19:13:41.121Z,3.78
2023-04-02T19:16:13.646Z,6.60
2023-04-02T19:19:01.861Z,4.13
2023-04-02T19:21:54.705Z,3.85
2023-04-02T19:24:36.942Z,3.90
2023-04-02T19:27:19.441Z,3.72
2023-04-02T19:29:51.965Z,3.97
2023-04-02T19:32:44.791Z,3.80
2023-04-02T19:35:11.401Z,4.10
2023-04-02T19:37:41.149Z,3.75
2023-04-02T19:40:19.518Z,3.83
2023-04-02T19:42:46.048Z,3.17
2023-04-02T19:45:21.671Z,7.45
2023-04-02T19:47:48.320Z,4.35
2023-04-02T19:50:17.788Z,4.18
2023-04-02T19:52:44.212Z,4.35
2023-04-02T19:55:10.930Z,3.95
2023-04-02T19:57:37.447Z,3.75
2023-04-02T20:00:04.252Z,4.03
2023-04-02T20:02:30.887Z,5.20
2023-04-02T20:04:57.479Z,4.68
2023-04-02T20:07:23.906Z,4.32
2023-04-02T20:09:50.471Z,6.50
2023-04-02T20:12:16.863Z,5.55
2023-04-02T20:14:43.387Z,5.60
2023-04-02T20:17:09.824Z,4.72
2023-04-02T20:19:36.346Z,4.85
2023-04-02T20:22:02.793Z,12.02
2023-04-02T20:24:29.236Z,4.20
2023-04-02T20:26:58.111Z,4.18
2023-04-02T20:29:27.952Z,10.45
2023-04-02T20:31:54.400Z,5.65
2023-04-02T20:34:21.164Z,6.10
2023-04-02T20:36:47.810Z,4.18
2023-04-02T20:39:19.348Z,8.25
2023-04-02T20:41:46.557Z,9.27
2023-04-02T20:44:13.307Z,4.50
2023-04-02T20:46:40.208Z,4.30
2023-04-02T20:49:06.969Z,4.75
2023-04-02T20:51:34.479Z,4.43
2023-04-02T20:54:01.003Z,4.30
2023-04-02T20:56:27.947Z,4.78
2023-04-02T20:58:54.632Z,4.45
2023-04-02T21:01:28.742Z,4.68
2023-04-02T21:03:59.200Z,4.63
2023-04-02T21:06:29.728Z,5.18
2023-04-02T21:08:56.337Z,5.43
2023-04-02T21:11:23.226Z,5.18
2023-04-02T21:13:49.975Z,5.15
2023-04-02T21:16:19.099Z,5.43
2023-04-02T21:18:46.166Z,5.30
2023-04-02T21:21:18.466Z,5.28
2023-04-02T21:23:45.284Z,5.78
2023-04-02T21:26:16.743Z,5.32
2023-04-02T21:28:43.952Z,5.72
2023-04-02T21:31:13.506Z,6.25
2023-04-02T21:33:41.527Z,5.60
2023-04-02T21:36:10.144Z,5.03
2023-04-02T21:38:38.199Z,5.63
2023-04-02T21:41:12.175Z,5.82
2023-04-02T21:43:39.119Z,6.07
2023-04-02T21:46:05.619Z,8.40
2023-04-02T21:48:32.178Z,8.15
2023-04-02T21:51:09.429Z,7.35
2023-04-02T21:53:36.266Z,6.32
2023-04-02T21:56:04.026Z,5.68
2023-04-02T21:58:30.494Z,8.35
2023-04-02T22:00:57.122Z,11.15
2023-04-02T22:03:31.056Z,5.97
2023-04-02T22:06:02.179Z,6.35
2023-04-02T22:08:28.780Z,5.80
2023-04-02T22:10:55.303Z,7.25
2023-04-02T22:13:22.043Z,14.70
2023-04-02T22:15:48.671Z,47.95
2023-04-02T22:18:15.548Z,12.20
2023-04-02T22:20:42.038Z,15.02
2023-04-02T22:23:09.085Z,10.30
2023-04-02T22:25:37.821Z,31.95
2023-04-02T22:28:04.319Z,28.08
2023-04-02T22:30:33.867Z,15.95
2023-04-02T22:33:00.654Z,11.07
2023-04-02T22:35:30.766Z,8.90
2023-04-02T22:37:57.443Z,9.30
2023-04-02T22:40:24.119Z,7.22
2023-04-02T22:42:50.758Z,6.18
2023-04-02T22:45:18.305Z,7.50
2023-04-02T22:47:48.096Z,6.18
2023-04-02T22:50:15.448Z,5.03
2023-04-02T22:52:42.215Z,5.70
2023-04-02T22:55:09.763Z,5.13
2023-04-02T22:57:36.988Z,5.40
2023-04-02T23:00:08.379Z,5.70
2023-04-02T23:02:35.036Z,5.50
2023-04-02T23:05:01.652Z,5.72
2023-04-02T23:07:28.227Z,5.20
2023-04-02T23:09:54.696Z,5.40
2023-04-02T23:12:21.372Z,5.20
2023-04-02T23:14:47.829Z,5.53
2023-04-02T23:17:14.358Z,6.22
2023-04-02T23:19:41.045Z,6.78
2023-04-02T23:22:07.515Z,6.78
2023-04-02T23:24:33.972Z,5.75
2023-04-02T23:27:00.448Z,5.50
2023-04-02T23:29:27.006Z,5.40
2023-04-02T23:31:53.638Z,5.60
2023-04-02T23:34:20.394Z,5.45
2023-04-02T23:36:46.856Z,5.70
2023-04-02T23:39:13.951Z,5.43
2023-04-02T23:41:41.372Z,6.35
2023-04-02T23:44:10.350Z,6.40
2023-04-02T23:46:39.811Z,5.70
2023-04-02T23:49:06.401Z,4.57
2023-04-02T23:51:35.373Z,5.35
2023-04-02T23:54:01.917Z,5.18
2023-04-02T23:56:28.356Z,5.50
2023-04-02T23:58:54.917Z,5.47
